| time (UTC) | temp C | wind direction | speed KPH | gust KPH | rain 1hr cm | rain 24hr cm | rain mn cm | humidity % | barometer mb |
| 20260508050032 | 8 | 158 | 8.0 | 17.7 | 0.00 | 0.03 | 0.03 | 70 | 1007.7 |
| 20260508045040 | 8 | 225 | 9.7 | 22.5 | 0.00 | 0.03 | 0.03 | 70 | 1007.6 |
| 20260508044019 | 8 | 180 | 4.8 | 12.9 | 0.00 | 0.03 | 0.03 | 70 | 1007.5 |
| 20260508043028 | 8 | 158 | 6.4 | 12.9 | 0.00 | 0.03 | 0.03 | 70 | 1007.5 |
| 20260508042030 | 8 | 158 | 8.0 | 17.7 | 0.00 | 0.03 | 0.03 | 70 | 1007.4 |
| 20260508041039 | 8 | 203 | 6.4 | 17.7 | 0.00 | 0.03 | 0.03 | 69 | 1007.4 |
| 20260508040028 | 8 | 180 | 6.4 | 17.7 | 0.00 | 0.03 | 0.03 | 68 | 1007.2 |
| 20260508035020 | 8 | 225 | 6.4 | 22.5 | 0.00 | 0.03 | 0.03 | 67 | 1007.1 |
| 20260508034019 | 8 | 225 | 8.0 | 16.1 | 0.00 | 0.03 | 0.03 | 65 | 1007.1 |
| 20260508033110 | 8 | 180 | 11.3 | 20.9 | 0.00 | 0.03 | 0.03 | 63 | 1007.0 |
| 20260508032031 | 8 | 158 | 12.9 | 29.0 | 0.00 | 0.03 | 0.03 | 62 | 1007.0 |
| 20260508031030 | 8 | 225 | 12.9 | 25.7 | 0.00 | 0.03 | 0.03 | 63 | 1007.0 |
| 20260508030028 | 8 | 180 | 9.7 | 24.1 | 0.00 | 0.03 | 0.03 | 63 | 1006.9 |
| 20260508025019 | 8 | 180 | 9.7 | 29.0 | 0.00 | 0.03 | 0.03 | 63 | 1006.9 |
| 20260508024020 | 8 | 180 | 9.7 | 25.7 | 0.00 | 0.03 | 0.03 | 66 | 1006.9 |
| 20260508023028 | 8 | 203 | 12.9 | 33.8 | 0.00 | 0.03 | 0.03 | 66 | 1006.8 |
| 20260508022032 | 8 | 180 | 11.3 | 22.5 | 0.00 | 0.03 | 0.03 | 66 | 1006.5 |
| 20260508021019 | 8 | 180 | 11.3 | 27.4 | 0.00 | 0.03 | 0.03 | 66 | 1006.7 |
| 20260508020028 | 8 | 180 | 11.3 | 30.6 | 0.00 | 0.03 | 0.03 | 66 | 1006.5 |
| 20260508015028 | 8 | 180 | 11.3 | 22.5 | 0.00 | 0.03 | 0.03 | 67 | 1006.5 |
| 20260508014019 | 8 | 225 | 9.7 | 20.9 | 0.00 | 0.03 | 0.03 | 66 | 1006.6 |
| 20260508013111 | 8 | 203 | 9.7 | 25.7 | 0.00 | 0.03 | 0.03 | 66 | 1006.4 |
| 20260508012029 | 8 | 158 | 8.0 | 25.7 | 0.00 | 0.03 | 0.03 | 67 | 1006.4 |
| 20260508011019 | 8 | 180 | 9.7 | 20.9 | 0.00 | 0.03 | 0.03 | 69 | 1006.4 |
| 20260508010019 | 8 | 158 | 4.8 | 17.7 | 0.00 | 0.03 | 0.03 | 70 | 1006.4 |
| 20260508005019 | 8 | 225 | 6.4 | 16.1 | 0.00 | 0.03 | 0.03 | 70 | 1006.4 |
| 20260508004029 | 8 | 180 | 3.2 | 11.3 | 0.00 | 0.03 | 0.03 | 69 | 1006.3 |
| 20260508003018 | 8 | 158 | 14.5 | 22.5 | 0.00 | 0.03 | 0.03 | 69 | 1006.4 |
| 20260508002020 | 8 | 158 | 6.4 | 14.5 | 0.00 | 0.03 | 0.03 | 70 | 1006.3 |
| 20260508001040 | 8 | 158 | 8.0 | 14.5 | 0.00 | 0.03 | 0.03 | 68 | 1006.3 |
| 20260508000037 | 8 | 180 | 6.4 | 12.9 | 0.03 | 0.03 | 0.03 | 68 | 1006.3 |
| 20260507235028 | 8 | 158 | 8.0 | 19.3 | 0.03 | 0.03 | 0.03 | 69 | 1006.3 |
| 20260507234036 | 8 | 180 | 8.0 | 20.9 | 0.03 | 0.03 | 0.03 | 73 | 1006.3 |
| 20260507233027 | 8 | 135 | 1.6 | 6.4 | 0.03 | 0.03 | 0.03 | 75 | 1006.3 |
| 20260507232040 | 8 | 158 | 6.4 | 14.5 | 0.03 | 0.03 | 0.03 | 75 | 1006.3 |
| 20260507231018 | 8 | 180 | 6.4 | 17.7 | 0.03 | 0.03 | 0.03 | 76 | 1006.3 |
| 20260507230019 | 8 | 158 | 4.8 | 17.7 | 0.00 | 0.00 | 0.00 | 76 | 1006.4 |
| 20260507225019 | 8 | 158 | 3.2 | 11.3 | 0.00 | 0.00 | 0.00 | 75 | 1006.3 |
| 20260507224019 | 8 | 158 | 12.9 | 19.3 | 0.00 | 0.00 | 0.00 | 74 | 1006.2 |
| 20260507223254 | 8 | 158 | 12.9 | 19.3 | 0.00 | 0.00 | 0.00 | 75 | 1006.1 |
| 20260507222019 | 8 | 158 | 14.5 | 20.9 | 0.00 | 0.00 | 0.00 | 75 | 1006.2 |
| 20260507221027 | 8 | 158 | 12.9 | 19.3 | 0.00 | 0.00 | 0.00 | 76 | 1006.0 |
| 20260507220018 | 8 | 158 | 12.9 | 19.3 | 0.00 | 0.00 | 0.00 | 77 | 1006.0 |
| 20260507215030 | 8 | 135 | 6.4 | 11.3 | 0.00 | 0.00 | 0.00 | 77 | 1006.0 |
| 20260507214027 | 9 | 158 | 9.7 | 12.9 | 0.00 | 0.00 | 0.00 | 75 | 1006.0 |
| 20260507213108 | 8 | 158 | 4.8 | 11.3 | 0.00 | 0.00 | 0.00 | 76 | 1006.1 |
| 20260507212030 | 8 | 158 | 4.8 | 9.7 | 0.00 | 0.00 | 0.00 | 77 | 1006.1 |
| 20260507211018 | 8 | 135 | 3.2 | 12.9 | 0.00 | 0.00 | 0.00 | 76 | 1006.1 |
| 20260507210018 | 9 | 0.0 | 4.8 | 0.00 | 0.00 | 0.00 | 75 | 1006.1 | |
| 20260507205019 | 9 | 158 | 11.3 | 17.7 | 0.00 | 0.00 | 0.00 | 75 | 1006.1 |
| 20260507204027 | 9 | 0.0 | 3.2 | 0.00 | 0.00 | 0.00 | 75 | 1006.0 | |
| 20260507203018 | 9 | 0.0 | 3.2 | 0.00 | 0.00 | 0.00 | 75 | 1006.0 | |
| 20260507202200 | 9 | 158 | 6.4 | 9.7 | 0.00 | 0.00 | 0.00 | 75 | 1006.0 |
| 20260507201027 | 9 | 113 | 9.7 | 16.1 | 0.00 | 0.00 | 0.00 | 74 | 1005.8 |
| 20260507200109 | 9 | 113 | 8.0 | 14.5 | 0.00 | 0.00 | 0.00 | 74 | 1005.6 |
| 20260507195028 | 10 | 135 | 9.7 | 16.1 | 0.00 | 0.00 | 0.00 | 72 | 1005.7 |
| 20260507194019 | 10 | 158 | 12.9 | 22.5 | 0.00 | 0.00 | 0.00 | 72 | 1005.7 |
| 20260507193020 | 10 | 158 | 16.1 | 24.1 | 0.00 | 0.00 | 0.00 | 71 | 1005.6 |
| 20260507192030 | 10 | 158 | 19.3 | 29.0 | 0.00 | 0.00 | 0.00 | 69 | 1005.6 |
| 20260507191038 | 10 | 158 | 16.1 | 24.1 | 0.00 | 0.00 | 0.00 | 68 | 1005.4 |
| 20260507190020 | 10 | 158 | 14.5 | 20.9 | 0.00 | 0.00 | 0.00 | 70 | 1005.5 |
| 20260507185048 | 10 | 113 | 8.0 | 16.1 | 0.00 | 0.00 | 0.00 | 73 | 1005.6 |
| 20260507184018 | 10 | 135 | 9.7 | 14.5 | 0.00 | 0.00 | 0.00 | 72 | 1005.6 |
| 20260507183029 | 10 | 158 | 14.5 | 19.3 | 0.00 | 0.00 | 0.00 | 72 | 1005.7 |
| 20260507182028 | 10 | 158 | 14.5 | 22.5 | 0.00 | 0.03 | 0.00 | 72 | 1005.5 |
| 20260507181020 | 10 | 180 | 6.4 | 14.5 | 0.00 | 0.03 | 0.00 | 69 | 1005.8 |
| 20260507180028 | 11 | 158 | 27.4 | 37.0 | 0.00 | 0.03 | 0.00 | 68 | 1005.5 |
| 20260507175215 | 11 | 158 | 22.5 | 32.2 | 0.00 | 0.03 | 0.00 | 67 | 1005.5 |
| 20260507174020 | 11 | 158 | 20.9 | 29.0 | 0.00 | 0.03 | 0.00 | 67 | 1005.6 |
| 20260507173021 | 11 | 158 | 17.7 | 25.7 | 0.00 | 0.03 | 0.00 | 68 | 1005.7 |
| 20260507172039 | 11 | 158 | 17.7 | 29.0 | 0.00 | 0.03 | 0.00 | 66 | 1005.6 |
| 20260507171049 | 11 | 158 | 14.5 | 25.7 | 0.00 | 0.03 | 0.00 | 65 | 1005.7 |
| 20260507170021 | 11 | 158 | 19.3 | 30.6 | 0.00 | 0.03 | 0.00 | 65 | 1005.7 |
| 20260507165028 | 11 | 158 | 24.1 | 33.8 | 0.00 | 0.03 | 0.00 | 64 | 1005.9 |
| 20260507164027 | 11 | 158 | 27.4 | 37.0 | 0.00 | 0.03 | 0.00 | 65 | 1005.8 |
| 20260507163030 | 11 | 158 | 33.8 | 48.3 | 0.00 | 0.03 | 0.00 | 62 | 1005.8 |
| 20260507162020 | 12 | 158 | 19.3 | 35.4 | 0.00 | 0.03 | 0.00 | 61 | 1005.7 |
| 20260507161030 | 12 | 158 | 11.3 | 22.5 | 0.00 | 0.03 | 0.00 | 59 | 1005.6 |
| 20260507160029 | 12 | 158 | 12.9 | 30.6 | 0.00 | 0.03 | 0.00 | 59 | 1005.5 |
| 20260507155030 | 12 | 158 | 11.3 | 24.1 | 0.00 | 0.03 | 0.00 | 58 | 1005.4 |
| 20260507154019 | 12 | 180 | 8.0 | 17.7 | 0.00 | 0.03 | 0.00 | 58 | 1005.5 |
| 20260507153038 | 12 | 158 | 6.4 | 17.7 | 0.00 | 0.03 | 0.00 | 57 | 1005.4 |
| 20260507152020 | 13 | 158 | 8.0 | 20.9 | 0.00 | 0.03 | 0.00 | 56 | 1005.6 |
| 20260507151027 | 13 | 158 | 25.7 | 38.6 | 0.00 | 0.03 | 0.00 | 56 | 1005.8 |
| 20260507150025 | 13 | 158 | 14.5 | 20.9 | 0.00 | 0.03 | 0.00 | 56 | 1005.8 |
| 20260507145020 | 13 | 158 | 11.3 | 24.1 | 0.00 | 0.03 | 0.00 | 56 | 1005.7 |
| 20260507144041 | 13 | 158 | 12.9 | 24.1 | 0.00 | 0.03 | 0.00 | 55 | 1005.8 |
| 20260507143029 | 13 | 158 | 12.9 | 24.1 | 0.00 | 0.03 | 0.00 | 56 | 1005.9 |
| 20260507142029 | 13 | 158 | 19.3 | 33.8 | 0.00 | 0.03 | 0.00 | 55 | 1006.0 |
| 20260507141020 | 12 | 158 | 17.7 | 29.0 | 0.00 | 0.03 | 0.00 | 55 | 1006.2 |
| 20260507140033 | 12 | 158 | 17.7 | 30.6 | 0.00 | 0.03 | 0.00 | 55 | 1006.2 |
| 20260507135021 | 12 | 158 | 19.3 | 40.2 | 0.00 | 0.03 | 0.00 | 56 | 1006.1 |
| 20260507134049 | 13 | 158 | 24.1 | 40.2 | 0.00 | 0.03 | 0.00 | 55 | 1006.1 |
| 20260507133042 | 13 | 158 | 24.1 | 37.0 | 0.00 | 0.03 | 0.00 | 55 | 1006.3 |
| 20260507132021 | 12 | 158 | 16.1 | 29.0 | 0.00 | 0.03 | 0.00 | 55 | 1006.2 |
| 20260507131020 | 12 | 158 | 19.3 | 37.0 | 0.00 | 0.03 | 0.00 | 57 | 1006.2 |
| 20260507130030 | 12 | 158 | 16.1 | 37.0 | 0.00 | 0.03 | 0.00 | 55 | 1006.3 |
| 20260507125029 | 12 | 158 | 20.9 | 35.4 | 0.00 | 0.03 | 0.00 | 55 | 1006.2 |
| 20260507124021 | 12 | 158 | 25.7 | 38.6 | 0.00 | 0.03 | 0.00 | 54 | 1006.3 |
| 20260507123040 | 13 | 158 | 19.3 | 35.4 | 0.00 | 0.03 | 0.00 | 57 | 1006.2 |
| 20260507122028 | 12 | 158 | 22.5 | 40.2 | 0.00 | 0.03 | 0.00 | 55 | 1006.5 |
| 20260507121028 | 12 | 158 | 19.3 | 38.6 | 0.00 | 0.03 | 0.00 | 58 | 1006.3 |
| 20260507120021 | 12 | 158 | 20.9 | 32.2 | 0.00 | 0.03 | 0.00 | 57 | 1006.3 |
| 20260507115040 | 12 | 158 | 19.3 | 29.0 | 0.00 | 0.03 | 0.00 | 57 | 1006.4 |
| 20260507114029 | 12 | 158 | 12.9 | 25.7 | 0.00 | 0.03 | 0.00 | 58 | 1006.4 |
| 20260507113029 | 12 | 158 | 16.1 | 22.5 | 0.00 | 0.03 | 0.00 | 57 | 1006.4 |
| 20260507112020 | 12 | 158 | 14.5 | 22.5 | 0.00 | 0.03 | 0.00 | 58 | 1006.5 |
| 20260507111029 | 12 | 158 | 22.5 | 32.2 | 0.00 | 0.03 | 0.00 | 58 | 1006.6 |
| 20260507110020 | 11 | 158 | 19.3 | 30.6 | 0.00 | 0.03 | 0.00 | 61 | 1006.5 |
| 20260507105028 | 11 | 158 | 17.7 | 30.6 | 0.00 | 0.03 | 0.00 | 58 | 1006.5 |
| 20260507104029 | 12 | 158 | 29.0 | 38.6 | 0.00 | 0.03 | 0.00 | 59 | 1006.6 |
| 20260507103020 | 12 | 158 | 22.5 | 37.0 | 0.00 | 0.03 | 0.00 | 59 | 1006.6 |
| 20260507102020 | 11 | 158 | 20.9 | 29.0 | 0.00 | 0.03 | 0.00 | 59 | 1006.6 |
| 20260507101020 | 11 | 158 | 20.9 | 32.2 | 0.00 | 0.03 | 0.00 | 61 | 1006.6 |
| 20260507100025 | 11 | 158 | 14.5 | 20.9 | 0.00 | 0.03 | 0.00 | 61 | 1006.7 |
| 20260507095020 | 10 | 158 | 11.3 | 17.7 | 0.00 | 0.03 | 0.00 | 64 | 1006.5 |
| 20260507094050 | 10 | 158 | 12.9 | 22.5 | 0.00 | 0.03 | 0.00 | 63 | 1006.6 |
| 20260507093029 | 10 | 158 | 11.3 | 19.3 | 0.00 | 0.03 | 0.00 | 63 | 1006.7 |
| 20260507092019 | 10 | 158 | 9.7 | 17.7 | 0.00 | 0.03 | 0.00 | 62 | 1006.8 |
| 20260507091020 | 10 | 158 | 11.3 | 22.5 | 0.00 | 0.03 | 0.00 | 63 | 1006.8 |
| 20260507090020 | 10 | 158 | 12.9 | 22.5 | 0.00 | 0.03 | 0.00 | 63 | 1006.8 |
| 20260507085048 | 10 | 158 | 12.9 | 27.4 | 0.00 | 0.03 | 0.00 | 63 | 1006.8 |
| 20260507084039 | 9 | 180 | 11.3 | 25.7 | 0.00 | 0.03 | 0.00 | 63 | 1006.8 |
| 20260507083019 | 9 | 158 | 9.7 | 16.1 | 0.00 | 0.03 | 0.00 | 63 | 1007.0 |
| 20260507082040 | 9 | 158 | 9.7 | 16.1 | 0.00 | 0.03 | 0.00 | 63 | 1007.0 |
| 20260507081020 | 9 | 158 | 11.3 | 17.7 | 0.00 | 0.03 | 0.00 | 63 | 1007.0 |
| 20260507080020 | 9 | 158 | 12.9 | 22.5 | 0.00 | 0.03 | 0.00 | 62 | 1007.0 |
| 20260507075028 | 9 | 158 | 8.0 | 16.1 | 0.00 | 0.03 | 0.00 | 63 | 1007.0 |
| 20260507074028 | 9 | 158 | 4.8 | 16.1 | 0.00 | 0.03 | 0.00 | 64 | 1007.0 |
| 20260507073019 | 9 | 135 | 6.4 | 14.5 | 0.00 | 0.03 | 0.00 | 65 | 1007.1 |
| 20260507072019 | 8 | 158 | 8.0 | 12.9 | 0.00 | 0.03 | 0.00 | 66 | 1007.0 |
| 20260507071019 | 8 | 135 | 4.8 | 9.7 | 0.00 | 0.03 | 0.00 | 68 | 1007.0 |
| 20260507070049 | 8 | 135 | 4.8 | 12.9 | 0.00 | 0.03 | 0.00 | 67 | 1007.1 |
| 20260507065019 | 8 | 45 | 1.6 | 9.7 | 0.00 | 0.03 | 0.00 | 68 | 1007.1 |
| 20260507064040 | 8 | 113 | 4.8 | 12.9 | 0.00 | 0.03 | 0.00 | 67 | 1007.2 |
| 20260507063037 | 8 | 135 | 8.0 | 20.9 | 0.00 | 0.03 | 0.00 | 68 | 1007.3 |
| 20260507062019 | 8 | 135 | 3.2 | 9.7 | 0.00 | 0.03 | 0.00 | 67 | 1007.4 |
| 20260507061048 | 8 | 113 | 6.4 | 19.3 | 0.00 | 0.03 | 0.00 | 67 | 1007.5 |
| 20260507060029 | 8 | 113 | 4.8 | 11.3 | 0.00 | 0.03 | 0.00 | 67 | 1007.6 |
| 20260507055033 | 8 | 158 | 6.4 | 16.1 | 0.00 | 0.03 | 0.00 | 67 | 1007.5 |
| 20260507054040 | 7 | 158 | 4.8 | 14.5 | 0.00 | 0.03 | 0.00 | 67 | 1007.4 |
| 20260507053019 | 7 | 135 | 4.8 | 11.3 | 0.00 | 0.03 | 0.00 | 67 | 1007.5 |
| 20260507052021 | 7 | 180 | 6.4 | 12.9 | 0.00 | 0.03 | 0.00 | 67 | 1007.5 |
| 20260507051019 | 7 | 158 | 6.4 | 11.3 | 0.00 | 0.03 | 0.00 | 67 | 1007.6 |